Latest Coastal Weather Observations for Mallacoota

IDV60701

Issued at 2:31 am EST Monday 25 July 2016 (issued every 10 minutes, with the page automatically refreshed every 10 minutes)

About coastal observations | Map of coastal stations | Coastal observations for VIC | Marine services | Other Formats
Station Details ID: 084084 Name: MALLACOOTA Lat: -37.60 Lon: 149.73 Height: 22.0 m
Data from the previous 72 hours. | See also: Recent months at Mallacoota
Date/Time
EST
Temp
°C
Wind Pressure Rain since
9am
mm
Weather Cloud Vis
km
Sea
Height
m
Swell
Dir  Spd
kts
Gust
kts
hPa Trend Height
m
Period
s
Dir
25/02:30am 5.7 NW 6 8 1005.5 - 0.0 - - - - - - -
25/02:00am 5.5 NNW 6 8 1005.7 - 0.0 - - - - - - -
25/01:30am 5.4 NW 6 8 1005.9 - 0.0 - - - - - - -
25/01:00am 5.7 NW 6 8 1006.2 - 0.0 - - - - - - -
25/12:30am 6.0 NNW 6 10 1006.0 - 0.0 - - - - - - -
25/12:00am 6.6 NNW 6 8 1006.5 - 0.0 - - - - - - -
 
Date/Time
EST
Temp
°C
Wind Pressure Rain since
9am
mm
Weather Cloud Vis
km
Sea
Height
m
Swell
Dir  Spd
kts
Gust
kts
hPa Trend Height
m
Period
s
Dir
24/11:30pm 7.0 WNW 4 6 1006.8 - 0.0 - - - - - - -
24/11:00pm 6.5 WNW 4 6 1007.3 - 0.0 - - - - - - -
24/10:30pm 6.3 WNW 5 7 1007.4 - 0.0 - - - - - - -
24/10:00pm 7.1 NNW 7 9 1007.7 - 0.0 - - - - - - -
24/09:30pm 7.0 WNW 4 6 1007.9 - 0.0 - - - - - - -
24/09:00pm 8.0 NW 6 8 1008.0 - 0.0 - - - - - - -
24/08:30pm 8.0 NW 6 8 1008.1 - 0.0 - - - - - - -
24/08:00pm 8.0 NW 6 9 1008.2 - 0.0 - - - - - - -
24/07:30pm 7.9 NW 6 8 1008.2 - 0.0 - - - - - - -
24/07:00pm 7.4 NW 6 7 1008.1 - 0.0 - - - - - - -
24/06:30pm 6.9 NW 6 8 1008.2 - 0.0 - - - - - - -
24/06:00pm 6.7 NNW 5 6 1008.1 - 0.0 - - - - - - -
24/05:30pm 7.0 NNW 3 4 1008.0 - 0.0 - - - - - - -
24/05:00pm 9.4 NNW 3 5 1008.3 - 0.0 - - - - - - -
24/04:30pm 10.9 N 4 5 1008.5 - 0.0 - - - - - - -
24/04:00pm 11.2 WNW 2 5 1008.8 - 0.0 - - - - - - -
24/03:30pm 11.4 W 3 5 1009.0 - 0.0 - - - - - - -
24/03:00pm 12.1 W 4 5 1008.9 - 0.0 - - - - - - -
24/02:30pm 12.4 NNW 6 9 1008.8 - 0.0 - - - - - - -
24/02:00pm 12.1 WNW 4 9 1009.1 - 0.0 - - - - - - -
24/01:30pm 12.1 NW 6 9 1009.4 - 0.0 - - - - - - -
24/01:00pm 13.0 WNW 7 13 1009.8 - 0.0 - - - - - - -
24/12:30pm 13.0 WNW 6 10 1010.2 - 0.0 - - - - - - -
24/12:00pm 12.7 WNW 6 9 1010.8 - 0.0 - - - - - - -
24/11:30am 12.2 WNW 6 11 1011.4 - 0.0 - - - - - - -
24/11:00am 11.9 NW 6 10 1011.9 - 0.0 - - - - - - -
24/10:30am 11.8 NNW 6 9 1012.2 - 0.0 - - - - - - -
24/10:00am 10.8 NNW 5 7 1012.4 - 0.0 - - - - - - -
24/09:30am 9.2 NNW 6 9 1012.4 - 0.0 - - - - - - -
24/09:00am 8.2 NW 6 9 1012.3 - 0.0 - - - - - - -
24/08:30am 6.6 NW 5 7 1011.9 - 0.0 - - - - - - -
24/08:00am 5.8 NW 5 7 1011.8 - 0.0 - - - - - - -
24/07:30am 5.0 NW 4 5 1011.8 - 0.0 - - - - - - -
24/07:00am 5.3 NW 5 8 1011.7 - 0.0 - - - - - - -
24/06:30am 5.5 WNW 6 10 1011.6 - 0.0 - - - - - - -
24/06:00am 5.1 WNW 4 7 1011.3 - 0.0 - - - - - - -
24/05:30am 5.6 W 5 7 1011.2 - 0.0 - - - - - - -
24/05:00am 6.2 W 6 11 1010.9 - 0.0 - - - - - - -
24/04:30am 6.4 WNW 7 13 1010.5 - 0.0 - - - - - - -
24/04:00am 6.6 W 7 12 1010.4 - 0.0 - - - - - - -
24/03:30am 7.4 W 7 14 1010.3 - 0.0 - - - - - - -
24/03:00am 6.7 W 5 9 1010.3 - 0.0 - - - - - - -
24/02:30am 7.2 SW 5 8 1010.5 - 0.0 - - - - - - -
24/02:00am 7.3 SW 7 11 1010.5 - 0.0 - - - - - - -
24/01:30am 7.7 SW 8 15 1010.4 - 0.0 - - - - - - -
24/01:00am 8.1 W 10 20 1010.0 - 0.0 - - - - - - -
24/12:30am 8.3 W 11 21 1009.8 - 0.0 - - - - - - -
24/12:00am 8.5 W 12 20 1009.5 - 0.0 - - - - - - -
 
Date/Time
EST
Temp
°C
Wind Pressure Rain since
9am
mm
Weather Cloud Vis
km
Sea
Height
m
Swell
Dir  Spd
kts
Gust
kts
hPa Trend Height
m
Period
s
Dir
23/11:30pm 8.6 W 12 21 1009.3 - 0.0 - - - - - - -
23/11:00pm 8.4 W 12 22 1008.8 - 0.0 - - - - - - -
23/10:30pm 8.6 W 10 21 1008.7 - 0.0 - - - - - - -
23/10:00pm 8.6 W 11 18 1008.3 - 0.0 - - - - - - -
23/09:43pm 8.8 W 15 26 1008.1 - 0.0 - - - - - - -
23/09:30pm 8.8 W 14 26 1007.9 - 0.0 - - - - - - -
23/09:00pm 9.1 W 14 30 1007.3 - 0.0 - - - - - - -
23/08:51pm 9.3 WSW 15 30 1007.2 - 0.0 - - - - - - -
23/08:30pm 9.1 W 14 26 1006.9 - 0.0 - - - - - - -
23/08:07pm 9.0 W 15 30 1006.5 - 0.0 - - - - - - -
23/08:00pm 8.7 WSW 13 26 1006.6 - 0.0 - - - - - - -
23/07:51pm 8.4 WSW 15 29 1006.5 - 0.0 - - - - - - -
23/07:30pm 9.3 WSW 9 17 1006.0 - 0.0 - - - - - - -
23/07:00pm 9.2 WSW 11 23 1005.5 - 0.0 - - - - - - -
23/06:30pm 9.0 WSW 11 20 1004.9 - 0.0 - - - - - - -
23/06:00pm 9.3 WSW 14 25 1004.6 - 0.0 - - - - - - -
23/05:30pm 8.8 W 9 16 1004.1 - 0.0 - - - - - - -
23/05:00pm 8.9 WSW 11 19 1003.5 - 0.0 - - - - - - -
23/04:30pm 9.2 WSW 10 19 1002.7 - 0.0 - - - - - - -
23/04:00pm 10.1 WSW 12 22 1002.5 - 0.0 - - - - - - -
23/03:31pm 10.2 W 15 25 1002.2 - 0.0 - - - - - - -
23/03:30pm 10.3 W 15 24 1002.1 - 0.0 - - - - - - -
23/03:01pm 10.6 WSW 15 31 1001.6 - 0.0 - - - - - - -
23/03:00pm 10.5 W 14 31 1001.5 - 0.0 - - - - - - -
23/02:37pm 10.6 W 15 27 1001.2 - 0.0 - - - - - - -
23/02:30pm 10.7 W 13 21 1001.1 - 0.0 - - - - - - -
23/02:02pm 10.8 WSW 15 28 1000.7 - 0.0 - - - - - - -
23/02:00pm 10.7 WSW 14 28 1000.6 - 0.0 - - - - - - -
23/01:30pm 10.8 WSW 16 35 1000.2 - 0.0 - - - - - - -
23/01:02pm 10.8 WSW 15 27 999.8 - 0.0 - - - - - - -
23/01:00pm 11.0 WSW 14 25 999.7 - 0.0 - - - - - - -
23/12:30pm 10.5 WSW 18 35 999.3 - 0.0 - - - - - - -
23/12:00pm 10.5 WSW 18 31 999.1 - 0.0 - - - - - - -
23/11:30am 10.0 WSW 18 36 998.6 - 0.0 - - - - - - -
23/11:18am 9.5 WSW 17 40 998.6 - 0.0 - - - - - - -
23/11:00am 10.2 WSW 16 26 998.5 - 0.0 - - - - - - -
23/10:30am 9.0 SW 19 36 997.8 - 0.0 - - - - - - -
23/10:00am 10.9 W 15 35 997.0 - 0.0 - - - - - - -
23/09:53am 11.0 W 15 35 996.7 - 0.0 - - - - - - -
23/09:30am 11.1 W 12 23 996.2 - 0.0 - - - - - - -
23/09:00am 10.6 W 14 25 995.7 - 11.8 - - - - - - -
23/08:30am 10.1 W 12 24 995.1 - 11.8 - - - - - - -
23/08:00am 9.7 WSW 16 31 994.7 - 11.8 - - - - - - -
23/07:30am 10.1 WSW 17 30 994.0 - 11.6 - - - - - - -
23/07:04am 11.1 W 15 29 993.3 - 11.6 - - - - - - -
23/07:00am 11.4 W 13 29 993.0 - 11.6 - - - - - - -
23/06:30am 9.8 WNW 6 11 991.6 - 11.6 - - - - - - -
23/06:00am 10.5 W 9 15 991.2 - 11.6 - - - - - - -
23/05:30am 9.5 WNW 6 11 991.2 - 11.6 - - - - - - -
23/05:00am 8.0 NW 5 6 990.7 - 11.6 - - - - - - -
23/04:30am 8.7 WNW 5 8 990.7 - 11.6 - - - - - - -
23/04:00am 9.3 WNW 5 9 990.5 - 11.6 - - - - - - -
23/03:30am 9.4 NW 7 12 990.7 - 11.6 - - - - - - -
23/03:00am 8.7 WNW 5 7 991.5 - 11.6 - - - - - - -
23/02:30am 8.4 NNW 6 8 991.2 - 11.2 - - - - - - -
23/02:00am 8.6 N 5 7 991.7 - 11.2 - - - - - - -
23/01:30am 8.9 N 4 6 991.9 - 11.2 - - - - - - -
23/01:00am 7.7 NW 4 5 993.0 - 11.2 - - - - - - -
23/12:30am 8.7 WNW 4 7 993.0 - 11.2 - - - - - - -
23/12:00am 8.7 NW 5 7 993.4 - 11.2 - - - - - - -
 
Date/Time
EST
Temp
°C
Wind Pressure Rain since
9am
mm
Weather Cloud Vis
km
Sea
Height
m
Swell
Dir  Spd
kts
Gust
kts
hPa Trend Height
m
Period
s
Dir
22/11:30pm 8.9 WNW 5 7 993.7 - 11.2 - - - - - - -
22/11:00pm 8.3 NW 4 5 994.1 - 11.2 - - - - - - -
22/10:30pm 9.4 NW 4 6 994.7 - 11.2 - - - - - - -
22/10:00pm 10.0 W 4 6 995.1 - 11.2 - - - - - - -
22/09:30pm 10.8 W 6 10 995.5 - 11.2 - - - - - - -
22/09:00pm 11.1 WSW 7 11 995.8 - 11.2 - - - - - - -
22/08:30pm 11.2 W 6 8 996.1 - 11.2 - - - - - - -
22/08:00pm 11.8 WSW 7 11 996.2 - 11.2 - - - - - - -
22/07:30pm 11.7 SW 8 13 995.9 - 11.2 - - - - - - -
22/07:00pm 12.3 SSW 16 23 995.6 - 11.2 - - - - - - -
22/06:45pm 13.5 SSW 19 29 995.1 - 11.2 - - - - - - -
22/06:30pm 13.1 SW 8 12 994.8 - 11.2 - - - - - - -
22/06:00pm 13.3 W 4 5 994.2 - 11.2 - - - - - - -
22/05:30pm 13.4 WNW 4 6 993.6 - 11.2 - - - - - - -
22/05:00pm 13.1 N 4 5 993.3 - 11.2 - - - - - - -
22/04:30pm 13.7 S 2 4 993.4 - 11.2 - - - - - - -
22/04:00pm 13.9 NNW 5 10 993.0 - 11.0 - - - - - - -
22/03:30pm 13.6 SSW 6 10 994.6 - 10.0 - - - - - - -
22/03:00pm 13.9 SSW 9 14 994.0 - 6.0 - - - - - - -
22/02:30pm 14.9 SSW 7 10 993.7 - 3.8 - - - - - - -
22/02:00pm 15.5 SSW 5 9 993.7 - 3.0 - - - - - - -
22/01:30pm 16.0 W 4 5 993.8 - 2.2 - - - - - - -
22/01:00pm 16.1 SW 4 6 993.8 - 1.2 - - - - - - -
22/12:30pm 18.0 W 3 4 993.9 - 0.0 - - - - - - -
22/12:00pm 19.1 N 8 13 994.5 - 0.0 - - - - - - -
22/11:30am 19.7 N 7 12 995.1 - 0.0 - - - - - - -
22/11:00am 19.3 N 9 15 996.1 - 0.0 - - - - - - -
22/10:30am 18.0 N 7 10 997.1 - 0.0 - - - - - - -
22/10:00am 16.9 N 7 10 997.8 - 0.0 - - - - - - -
22/09:30am 16.8 N 6 9 998.2 - 0.0 - - - - - - -
22/09:00am 14.1 N 6 9 998.6 - 0.0 - - - - - - -
22/08:30am 12.6 NNE 5 8 999.4 - 0.0 - - - - - - -
22/08:00am 12.9 N 7 10 999.9 - 0.0 - - - - - - -
22/07:30am 11.2 N 6 7 1000.5 - 0.0 - - - - - - -
22/07:00am 10.8 N 6 8 1000.4 - 0.0 - - - - - - -
22/06:30am 11.6 NNW 5 6 1001.0 - 0.0 - - - - - - -
22/06:00am 9.6 N 4 5 1001.3 - 0.0 - - - - - - -
22/05:30am 10.1 NNW 4 5 1002.0 - 0.0 - - - - - - -
22/05:00am 10.1 NNW 5 5 1002.4 - 0.0 - - - - - - -
22/04:30am 9.9 NW 3 5 1003.4 - 0.0 - - - - - - -
22/04:00am 10.5 N 5 5 1004.1 - 0.0 - - - - - - -
22/03:30am 12.4 NNW 6 8 1004.8 - 0.0 - - - - - - -
22/03:00am 13.1 NNW 7 10 1005.6 - 0.0 - - - - - - -

Other Formats:

Comma delimited format used in spreadsheet applications
http://www.bom.gov.au/fwo/IDV60701/IDV60701.94935.axf

JavaScript Object Notation format (JSON) in row-major order
http://www.bom.gov.au/fwo/IDV60701/IDV60701.94935.json